Time;durP1;ratioP1;P1;durP2;ratioP2;P2;SDS_P1;SDS_P2;PMS_P1;PMS_P2;Temp;Humidity;BMP_temperature;BMP_pressure;BME280_temperature;BME280_humidity;BME280_pressure;Samples;Min_cycle;Max_cycle;Signal;HPM_P1;HPM_P2
2021/07/27 00:01:46;;;;;;;39.85;15.68;;;17.70;99.90;;;;;;5093118;28;20469;-75
2021/07/27 00:04:12;;;;;;;41.83;16.02;;;17.70;99.90;;;;;;5074907;28;20028;-76
2021/07/27 00:06:37;;;;;;;40.03;16.45;;;17.70;99.90;;;;;;5075524;28;20380;-76
2021/07/27 00:09:03;;;;;;;38.05;15.38;;;18.40;99.90;;;;;;5113149;28;20388;-76
2021/07/27 00:11:28;;;;;;;36.20;14.88;;;17.70;99.90;;;;;;5097744;28;20027;-76
2021/07/27 00:13:54;;;;;;;41.22;16.17;;;17.70;99.90;;;;;;5117607;28;20398;-76
2021/07/27 00:16:19;;;;;;;32.88;14.20;;;17.60;99.90;;;;;;5117392;28;20444;-75
2021/07/27 00:18:45;;;;;;;39.63;15.65;;;17.60;99.90;;;;;;5117500;28;20080;-76
2021/07/27 00:21:10;;;;;;;41.70;15.20;;;17.60;99.90;;;;;;5117593;28;20381;-75
2021/07/27 00:23:37;;;;;;;36.45;14.50;;;17.60;99.90;;;;;;5102743;28;20024;-74
2021/07/27 00:26:09;;;;;;;40.70;14.57;;;17.60;99.90;;;;;;5096752;28;20040;-75
2021/07/27 00:28:35;;;;;;;36.92;14.13;;;17.60;99.90;;;;;;5096770;28;20035;-76
2021/07/27 00:31:02;;;;;;;37.40;14.10;;;17.50;99.90;;;;;;5078400;28;20478;-74
2021/07/27 00:33:28;;;;;;;35.65;14.98;;;17.50;99.90;;;;;;5096538;28;20434;-74
2021/07/27 00:35:53;;;;;;;37.05;14.98;;;17.60;99.90;;;;;;5096817;28;20051;-76
2021/07/27 00:38:21;;;;;;;37.25;15.18;;;17.50;99.90;;;;;;5078441;28;20029;-77
2021/07/27 00:40:47;;;;;;;34.88;13.75;;;17.60;99.90;;;;;;5096441;28;20107;-76
2021/07/27 00:43:14;;;;;;;34.67;14.43;;;17.60;99.90;;;;;;5096445;28;20060;-76
2021/07/27 00:45:41;;;;;;;36.15;14.48;;;17.60;99.90;;;;;;5078455;28;20373;-74
2021/07/27 00:48:06;;;;;;;34.45;14.63;;;17.60;99.90;;;;;;5079033;28;20471;-75
2021/07/27 00:50:33;;;;;;;34.03;13.45;;;17.60;99.90;;;;;;5083511;28;20102;-76
2021/07/27 00:53:01;;;;;;;31.98;13.07;;;17.60;99.90;;;;;;5116665;28;20027;-76
2021/07/27 00:55:28;;;;;;;32.42;13.70;;;17.60;99.90;;;;;;5121566;22;20044;-75
2021/07/27 00:57:54;;;;;;;33.05;12.80;;;17.60;99.90;;;;;;5096184;28;20520;-74
2021/07/27 01:00:21;;;;;;;29.27;13.15;;;17.60;99.90;;;;;;5096095;28;20016;-74
2021/07/27 01:02:50;;;;;;;29.15;12.52;;;17.60;99.90;;;;;;5096080;28;20028;-77
2021/07/27 01:05:16;;;;;;;25.10;11.85;;;17.50;99.90;;;;;;5096602;28;20432;-74
2021/07/27 01:07:42;;;;;;;27.52;11.88;;;17.50;99.90;;;;;;5096048;28;20024;-76
2021/07/27 01:10:10;;;;;;;28.98;11.52;;;17.50;99.90;;;;;;5077893;28;20073;-76
2021/07/27 01:12:37;;;;;;;26.20;11.55;;;17.50;99.90;;;;;;5095812;28;20061;-75
2021/07/27 01:15:03;;;;;;;28.65;11.88;;;17.40;99.90;;;;;;5095922;28;20016;-76
2021/07/27 01:17:29;;;;;;;26.30;11.23;;;17.40;99.90;;;;;;5096104;28;20024;-77
2021/07/27 01:39:06;;;;;;;30.33;11.35;;;17.10;99.90;;;;;;5075207;28;20055;-76
2021/07/27 01:44:03;;;;;;;;;;;17.10;99.90;;;;;;5075748;28;20037;-76
2021/07/27 01:46:33;;;;;;;29.15;11.98;;;17.00;99.90;;;;;;5088269;28;19908;-76
2021/07/27 01:48:59;;;;;;;24.88;11.25;;;17.00;99.90;;;;;;5115232;28;20040;-74
2021/07/27 01:51:25;;;;;;;27.17;10.68;;;16.90;99.90;;;;;;5115513;28;20024;-74
2021/07/27 01:53:52;;;;;;;26.00;10.60;;;16.90;99.90;;;;;;5115490;28;20024;-74
2021/07/27 01:56:19;;;;;;;31.25;12.73;;;16.90;99.90;;;;;;5097888;28;20031;-74
2021/07/27 01:58:46;;;;;;;28.27;12.15;;;16.90;99.90;;;;;;5113525;28;20144;-74
2021/07/27 02:01:12;;;;;;;26.07;11.57;;;16.80;99.90;;;;;;5115213;28;20048;-74
2021/07/27 02:03:38;;;;;;;30.40;11.02;;;16.80;99.90;;;;;;5096882;28;20122;-74
2021/07/27 02:06:03;;;;;;;26.52;10.65;;;16.80;99.90;;;;;;5115439;28;20020;-74
2021/07/27 02:08:29;;;;;;;28.25;11.68;;;16.70;99.90;;;;;;5096753;28;20027;-74
2021/07/27 02:11:01;;;;;;;29.27;12.32;;;16.70;99.90;;;;;;5096785;28;20020;-74
2021/07/27 02:13:44;;;;;;;36.55;13.18;;;16.70;99.90;;;;;;5102533;28;20067;-75
2021/07/27 02:16:09;;;;;;;30.50;12.60;;;16.70;99.90;;;;;;5077476;28;20028;-74
2021/07/27 02:18:35;;;;;;;31.27;11.85;;;16.70;99.90;;;;;;5094557;28;20024;-74
2021/07/27 02:21:00;;;;;;;28.65;12.60;;;16.60;99.90;;;;;;5094439;28;20024;-74
2021/07/27 02:23:26;;;;;;;37.90;13.65;;;16.60;99.90;;;;;;5094476;28;20047;-74
2021/07/27 02:25:51;;;;;;;30.17;13.18;;;16.50;99.90;;;;;;5094276;22;20514;-75
2021/07/27 02:28:17;;;;;;;39.28;14.57;;;16.50;99.90;;;;;;5075450;28;20031;-76
2021/07/27 02:30:48;;;;;;;34.42;13.10;;;16.50;99.90;;;;;;5094309;28;20024;-76
2021/07/27 02:33:15;;;;;;;28.20;12.52;;;16.50;99.90;;;;;;5094007;28;20030;-76
2021/07/27 02:35:41;;;;;;;28.17;12.60;;;16.40;99.90;;;;;;5094032;28;20028;-76
2021/07/27 02:38:07;;;;;;;28.13;12.60;;;16.40;99.90;;;;;;5076130;28;20402;-75
2021/07/27 02:40:34;;;;;;;35.67;15.55;;;16.40;99.90;;;;;;5075943;28;20031;-75
2021/07/27 02:43:04;;;;;;;36.90;14.07;;;16.40;99.90;;;;;;5094324;28;20478;-76
2021/07/27 02:45:30;;;;;;;27.33;12.70;;;16.40;99.90;;;;;;5094323;28;20362;-76
2021/07/27 02:47:55;;;;;;;32.85;12.95;;;16.40;99.90;;;;;;5094112;28;20031;-76
2021/07/27 02:50:21;;;;;;;32.55;13.68;;;16.40;99.90;;;;;;5093232;28;20359;-76
2021/07/27 02:52:47;;;;;;;38.80;14.93;;;16.40;99.90;;;;;;5055944;28;20012;-74
2021/07/27 02:55:13;;;;;;;32.17;13.23;;;16.20;99.90;;;;;;5073734;28;20031;-76
2021/07/27 02:57:39;;;;;;;38.47;14.55;;;16.40;99.90;;;;;;5073565;28;20025;-76
2021/07/27 03:00:09;;;;;;;35.10;15.88;;;16.30;99.90;;;;;;5055633;28;20016;-76
2021/07/27 03:02:35;;;;;;;34.72;14.60;;;16.30;99.90;;;;;;5055743;28;20111;-75
2021/07/27 03:05:01;;;;;;;40.67;15.82;;;16.30;99.90;;;;;;5073842;28;20108;-74
2021/07/27 03:07:34;;;;;;;44.95;17.15;;;16.30;99.90;;;;;;5073807;28;20441;-74
2021/07/27 03:12:49;;;;;;;46.28;17.67;;;16.40;99.90;;;;;;5074323;28;20063;-76
2021/07/27 03:15:16;;;;;;;45.08;18.23;;;16.40;99.90;;;;;;5073560;28;20125;-74
2021/07/27 03:17:42;;;;;;;51.30;17.88;;;16.40;99.90;;;;;;5055774;28;20420;-77
2021/07/27 03:20:14;;;;;;;49.60;17.83;;;16.40;99.90;;;;;;5055250;28;20024;-76
2021/07/27 03:22:42;;;;;;;48.17;17.80;;;16.40;99.90;;;;;;5073552;28;20103;-76
2021/07/27 03:25:10;;;;;;;53.17;19.60;;;16.50;99.90;;;;;;5073185;28;20037;-76
2021/07/27 03:27:36;;;;;;;51.40;19.17;;;16.50;99.90;;;;;;5055373;28;20127;-76
2021/07/27 03:30:03;;;;;;;51.38;19.63;;;16.50;99.90;;;;;;5055277;28;20051;-76
2021/07/27 03:32:28;;;;;;;51.75;18.45;;;16.50;99.90;;;;;;5073229;28;20110;-76
2021/07/27 03:34:54;;;;;;;58.15;20.40;;;16.50;99.90;;;;;;5055306;28;20561;-77
2021/07/27 03:37:19;;;;;;;52.50;20.80;;;16.50;99.90;;;;;;5073273;28;20029;-74
2021/07/27 03:39:47;;;;;;;50.97;19.65;;;16.50;99.90;;;;;;5073231;28;20107;-76
2021/07/27 03:42:13;;;;;;;62.40;22.92;;;16.50;99.90;;;;;;5073208;28;20386;-76
2021/07/27 03:44:39;;;;;;;56.88;20.60;;;16.50;99.90;;;;;;5055018;28;20020;-75
2021/07/27 03:47:04;;;;;;;57.97;21.63;;;16.50;99.90;;;;;;5077093;28;20027;-74
2021/07/27 03:49:30;;;;;;;62.35;23.23;;;16.50;99.90;;;;;;5086510;28;20028;-76
2021/07/27 03:52:00;;;;;;;61.10;21.95;;;16.50;99.90;;;;;;5079486;28;20370;-75
2021/07/27 03:54:31;;;;;;;61.40;24.30;;;16.50;99.90;;;;;;5079241;28;20031;-74
2021/07/27 03:56:57;;;;;;;61.92;22.88;;;16.50;99.90;;;;;;5096945;28;20101;-74
2021/07/27 03:59:23;;;;;;;61.58;23.52;;;16.50;99.90;;;;;;5079019;28;20059;-75
2021/07/27 04:01:49;;;;;;;63.38;23.73;;;16.50;99.90;;;;;;5097139;28;20484;-75
2021/07/27 04:04:18;;;;;;;61.55;21.88;;;16.50;99.90;;;;;;5078996;28;20035;-76
2021/07/27 04:06:48;;;;;;;62.63;22.83;;;16.50;99.90;;;;;;5097193;28;20016;-76
2021/07/27 04:09:14;;;;;;;65.20;24.42;;;16.50;99.90;;;;;;5097199;28;20143;-76
2021/07/27 04:11:39;;;;;;;65.40;22.35;;;16.60;99.90;;;;;;5077559;28;20058;-74
2021/07/27 04:14:06;;;;;;;62.45;23.05;;;16.50;99.90;;;;;;5082191;28;20072;-76
2021/07/27 04:16:37;;;;;;;61.83;22.30;;;16.60;99.90;;;;;;5076567;28;20028;-75
2021/07/27 04:19:02;;;;;;;60.22;22.27;;;16.60;99.90;;;;;;5058681;28;20024;-76
2021/07/27 04:21:28;;;;;;;55.35;21.23;;;16.70;99.90;;;;;;5076601;28;20385;-76
2021/07/27 04:23:57;;;;;;;52.90;21.02;;;16.60;99.90;;;;;;5076483;28;20036;-76
2021/07/27 04:26:23;;;;;;;59.42;22.88;;;16.70;99.90;;;;;;5076489;28;20029;-75
2021/07/27 04:28:48;;;;;;;53.45;20.95;;;16.70;99.90;;;;;;5096812;28;20561;-76
2021/07/27 04:31:15;;;;;;;55.50;21.65;;;16.70;99.90;;;;;;5078522;28;20027;-75
2021/07/27 04:33:41;;;;;;;54.50;20.00;;;16.70;99.90;;;;;;5096650;28;20028;-76
2021/07/27 04:36:09;;;;;;;58.40;22.08;;;16.80;99.90;;;;;;5096508;28;20488;-75
2021/07/27 04:38:35;;;;;;;61.47;22.63;;;16.80;99.90;;;;;;5080874;28;20024;-74
2021/07/27 04:41:06;;;;;;;52.33;22.17;;;16.80;99.90;;;;;;5076145;28;20025;-76
2021/07/27 04:43:35;;;;;;;53.03;21.10;;;16.90;99.90;;;;;;5076078;28;20107;-76
2021/07/27 04:46:02;;;;;;;51.33;21.10;;;16.90;99.90;;;;;;5076084;28;20385;-75
2021/07/27 04:48:28;;;;;;;52.25;20.15;;;16.90;99.90;;;;;;5058160;28;20013;-76
2021/07/27 04:50:54;;;;;;;50.90;19.42;;;16.90;99.90;;;;;;5076042;28;20202;-77
2021/07/27 04:53:23;;;;;;;53.15;20.35;;;16.90;99.90;;;;;;5076036;28;20104;-74
2021/07/27 04:55:57;;;;;;;44.88;18.15;;;17.00;99.90;;;;;;5057890;28;20489;-74
2021/07/27 04:58:23;;;;;;;52.92;18.40;;;17.00;99.90;;;;;;5058013;28;20066;-75
2021/07/27 05:00:49;;;;;;;46.67;19.13;;;17.10;99.90;;;;;;5075820;28;20052;-75
2021/07/27 05:03:14;;;;;;;47.40;18.17;;;17.10;99.90;;;;;;5057921;28;20017;-76
2021/07/27 05:05:40;;;;;;;46.78;19.38;;;17.10;99.90;;;;;;5076532;28;20067;-76
2021/07/27 05:08:05;;;;;;;44.03;17.35;;;17.10;99.90;;;;;;5058939;28;20427;-76
2021/07/27 05:10:31;;;;;;;42.78;16.42;;;17.20;99.90;;;;;;5075675;28;20068;-74
2021/07/27 05:12:58;;;;;;;51.33;18.63;;;17.10;99.90;;;;;;5075960;28;20111;-74
2021/07/27 05:15:27;;;;;;;43.20;18.23;;;17.20;99.90;;;;;;5057664;28;20021;-76
2021/07/27 05:17:59;;;;;;;;;;;17.20;99.90;;;;;;5075957;28;20456;-74
2021/07/27 05:20:24;;;;;;;39.60;15.80;;;17.20;99.90;;;;;;5075430;28;20397;-76
2021/07/27 05:22:50;;;;;;;42.47;16.33;;;17.20;99.90;;;;;;5087505;28;20020;-74
2021/07/27 05:25:19;;;;;;;35.22;15.63;;;17.20;99.90;;;;;;5095807;28;20107;-74
2021/07/27 05:27:46;;;;;;;44.50;17.17;;;17.20;99.90;;;;;;5095678;28;20027;-74
2021/07/27 05:30:13;;;;;;;39.47;16.67;;;17.80;99.90;;;;;;5095597;28;20024;-75
2021/07/27 05:32:39;;;;;;;33.17;15.82;;;17.20;99.90;;;;;;5077563;28;20089;-76
2021/07/27 05:35:05;;;;;;;36.47;14.57;;;17.20;99.90;;;;;;5067028;28;20029;-74
2021/07/27 05:37:30;;;;;;;30.95;14.50;;;17.20;99.90;;;;;;5057196;28;20024;-76
2021/07/27 05:39:56;;;;;;;36.30;14.05;;;17.20;99.90;;;;;;5075095;28;20112;-74
2021/07/27 05:42:23;;;;;;;29.73;13.25;;;17.20;99.90;;;;;;5075192;28;20508;-74
2021/07/27 05:44:48;;;;;;;32.92;14.43;;;17.20;99.90;;;;;;5075023;28;20111;-76
2021/07/27 05:47:14;;;;;;;31.45;13.40;;;17.30;99.90;;;;;;5091202;28;20496;-75
2021/07/27 05:49:39;;;;;;;28.20;13.32;;;17.30;99.90;;;;;;5095269;28;20446;-76
2021/07/27 05:52:06;;;;;;;31.23;13.18;;;17.30;99.90;;;;;;5095227;28;20069;-74
2021/07/27 05:54:32;;;;;;;32.08;12.82;;;17.40;99.90;;;;;;5095411;28;20081;-76
2021/07/27 05:56:57;;;;;;;26.75;11.35;;;17.40;99.90;;;;;;5095159;28;20020;-76
2021/07/27 05:59:23;;;;;;;31.75;13.52;;;17.50;99.90;;;;;;5093618;28;20012;-76
2021/07/27 06:01:49;;;;;;;27.88;12.00;;;17.40;99.90;;;;;;5095047;28;20366;-76
2021/07/27 06:04:15;;;;;;;28.17;12.95;;;17.50;99.90;;;;;;5076759;28;20397;-76
2021/07/27 06:06:41;;;;;;;27.10;12.73;;;17.50;99.90;;;;;;5094800;28;20017;-75
2021/07/27 06:09:11;;;;;;;29.58;11.50;;;17.70;99.90;;;;;;5075961;28;20024;-74
2021/07/27 06:11:37;;;;;;;29.65;12.57;;;17.70;99.90;;;;;;5093177;28;20051;-77
2021/07/27 06:14:04;;;;;;;22.88;10.77;;;17.80;99.90;;;;;;5095454;28;20109;-74
2021/07/27 06:16:30;;;;;;;24.38;11.65;;;17.90;99.90;;;;;;5094812;28;20537;-75
2021/07/27 06:18:56;;;;;;;26.60;12.45;;;17.90;99.90;;;;;;5063440;28;20393;-75
2021/07/27 06:21:22;;;;;;;28.17;11.05;;;18.00;99.90;;;;;;5085486;28;20473;-75
2021/07/27 06:23:47;;;;;;;21.52;10.27;;;18.10;99.90;;;;;;5094451;28;20067;-75
2021/07/27 06:26:13;;;;;;;26.45;10.45;;;18.10;99.90;;;;;;5080119;28;20094;-76
2021/07/27 06:28:39;;;;;;;22.83;10.55;;;18.20;99.90;;;;;;5078734;28;20020;-76
2021/07/27 06:31:10;;;;;;;25.75;11.57;;;18.10;99.90;;;;;;5076111;28;20012;-76
2021/07/27 06:33:41;;;;;;;23.65;10.50;;;18.20;99.90;;;;;;5076071;28;20058;-76
2021/07/27 06:36:07;;;;;;;27.13;13.00;;;18.20;99.90;;;;;;5094690;28;20035;-76
2021/07/27 06:38:33;;;;;;;22.73;10.77;;;18.20;99.90;;;;;;5076064;28;20480;-75
2021/07/27 06:41:00;;;;;;;21.35;10.55;;;18.20;99.90;;;;;;5094629;28;20054;-76
2021/07/27 06:43:25;;;;;;;23.63;9.82;;;18.10;99.90;;;;;;5064770;28;20085;-76
2021/07/27 06:45:55;;;;;;;20.95;10.27;;;18.10;99.90;;;;;;5073794;28;20099;-76
2021/07/27 06:48:21;;;;;;;22.08;10.88;;;18.20;99.90;;;;;;5074021;28;20020;-76
2021/07/27 06:50:47;;;;;;;23.42;10.45;;;18.30;99.90;;;;;;5055707;28;20016;-76
2021/07/27 06:53:12;;;;;;;24.75;10.13;;;18.30;99.90;;;;;;5055873;28;20167;-76
2021/07/27 06:55:39;;;;;;;22.55;10.55;;;18.40;99.90;;;;;;5056099;28;20111;-75
2021/07/27 06:58:05;;;;;;;22.17;10.43;;;18.50;99.90;;;;;;5056886;28;20031;-75
2021/07/27 07:00:30;;;;;;;24.75;10.00;;;18.70;99.90;;;;;;5074480;28;20111;-77
2021/07/27 07:02:56;;;;;;;29.63;11.82;;;18.70;99.90;;;;;;5074059;28;20407;-76
2021/07/27 07:05:21;;;;;;;19.40;9.55;;;18.90;99.90;;;;;;5055759;28;20029;-76
2021/07/27 07:07:47;;;;;;;22.00;9.90;;;19.00;99.90;;;;;;5073935;28;20428;-76
2021/07/27 07:10:13;;;;;;;25.65;9.93;;;19.10;99.90;;;;;;5075968;28;20021;-76
2021/07/27 07:12:38;;;;;;;20.70;8.93;;;19.20;99.90;;;;;;5093783;28;20035;-76
2021/07/27 07:15:04;;;;;;;20.38;9.82;;;19.30;99.90;;;;;;5093535;28;20028;-76
2021/07/27 07:17:30;;;;;;;23.75;10.02;;;19.30;99.90;;;;;;5076719;28;20542;-75
2021/07/27 07:19:56;;;;;;;18.55;9.38;;;19.30;99.90;;;;;;5075381;28;20020;-75
2021/07/27 07:22:22;;;;;;;20.38;9.82;;;19.30;99.90;;;;;;5094100;28;20024;-76
2021/07/27 07:24:48;;;;;;;21.25;9.98;;;19.30;99.90;;;;;;5093664;28;20031;-77
2021/07/27 07:27:14;;;;;;;18.92;9.70;;;19.30;99.90;;;;;;5094286;28;20038;-74
2021/07/27 07:29:40;;;;;;;18.35;8.65;;;19.20;99.90;;;;;;5093585;28;20039;-76
2021/07/27 07:32:06;;;;;;;22.35;9.93;;;19.10;99.90;;;;;;5093631;28;20020;-77
2021/07/27 07:34:32;;;;;;;19.58;9.02;;;19.00;99.90;;;;;;5075431;28;20028;-74
2021/07/27 07:36:58;;;;;;;20.08;9.32;;;18.90;99.90;;;;;;5075312;28;20162;-74
2021/07/27 07:39:24;;;;;;;19.17;9.35;;;18.80;99.90;;;;;;5075232;28;20070;-76
2021/07/27 07:41:50;;;;;;;19.75;9.20;;;18.80;99.90;;;;;;5093594;28;20427;-75
2021/07/27 07:44:15;;;;;;;21.15;9.95;;;18.80;99.90;;;;;;5077348;28;20033;-75
2021/07/27 07:46:41;;;;;;;21.52;9.02;;;18.80;99.90;;;;;;5073198;28;20052;-74
2021/07/27 07:49:06;;;;;;;20.70;9.48;;;18.80;99.90;;;;;;5055050;28;20074;-74
2021/07/27 07:51:33;;;;;;;18.73;9.23;;;18.80;99.90;;;;;;5073479;28;20397;-75
2021/07/27 07:54:00;;;;;;;21.08;9.35;;;18.90;99.90;;;;;;5055139;28;20085;-74
2021/07/27 07:56:26;;;;;;;22.20;10.10;;;19.00;99.90;;;;;;5073383;28;20440;-74
2021/07/27 07:58:52;;;;;;;18.63;9.00;;;19.20;99.90;;;;;;5057756;28;20036;-75
2021/07/27 08:01:18;;;;;;;22.38;9.88;;;19.30;99.90;;;;;;5085866;28;20056;-75
2021/07/27 08:03:43;;;;;;;21.20;9.20;;;19.30;99.90;;;;;;5091370;28;20481;-75
2021/07/27 08:06:09;;;;;;;22.95;9.07;;;19.50;99.90;;;;;;5075033;28;20107;-76
2021/07/27 08:08:36;;;;;;;18.08;9.55;;;19.60;99.90;;;;;;5067477;28;20036;-74
2021/07/27 08:11:06;;;;;;;18.33;8.43;;;19.70;99.90;;;;;;5074162;28;20052;-77
2021/07/27 08:13:32;;;;;;;20.85;9.13;;;19.80;99.90;;;;;;5073490;28;20111;-76
2021/07/27 08:15:57;;;;;;;18.48;8.60;;;19.90;99.90;;;;;;5073880;28;20075;-75
2021/07/27 08:18:23;;;;;;;20.95;10.10;;;20.10;99.90;;;;;;5054861;28;20020;-74
2021/07/27 08:20:49;;;;;;;20.13;8.40;;;20.10;99.90;;;;;;5063581;28;20170;-74
2021/07/27 08:23:15;;;;;;;21.83;9.13;;;20.30;99.90;;;;;;5092991;28;20055;-73
2021/07/27 08:25:40;;;;;;;24.85;10.40;;;20.30;99.90;;;;;;5074972;28;20028;-75
2021/07/27 08:28:06;;;;;;;19.27;9.38;;;20.40;99.90;;;;;;5093193;28;20106;-73
2021/07/27 08:30:32;;;;;;;18.67;8.85;;;20.50;99.90;;;;;;5092511;28;20491;-75
2021/07/27 08:32:57;;;;;;;18.80;8.60;;;20.70;99.90;;;;;;5078137;28;20101;-73
2021/07/27 08:35:23;;;;;;;19.90;10.23;;;20.70;99.90;;;;;;5097278;28;20364;-73
2021/07/27 08:37:50;;;;;;;23.30;9.77;;;20.70;99.90;;;;;;5096992;28;20565;-73
2021/07/27 08:40:17;;;;;;;20.58;10.02;;;20.60;99.90;;;;;;5096508;28;20077;-75
2021/07/27 08:42:44;;;;;;;21.10;10.25;;;20.40;99.90;;;;;;5096636;28;20022;-76
2021/07/27 08:45:12;;;;;;;25.23;11.23;;;20.30;99.90;;;;;;5096503;28;20556;-75
2021/07/27 08:47:41;;;;;;;25.30;10.43;;;20.10;99.90;;;;;;5095889;28;20423;-73
2021/07/27 08:50:11;;;;;;;28.75;11.88;;;19.90;99.90;;;;;;5096213;28;20016;-74
2021/07/27 08:52:37;;;;;;;24.58;10.88;;;19.90;99.90;;;;;;5096905;28;20385;-75
2021/07/27 08:55:07;;;;;;;22.65;11.48;;;20.00;99.90;;;;;;5097000;28;20020;-76
2021/07/27 08:57:33;;;;;;;26.67;11.23;;;20.10;99.90;;;;;;5078634;28;20023;-76
2021/07/27 08:59:59;;;;;;;27.55;12.00;;;20.40;99.90;;;;;;5096510;28;20027;-74
2021/07/27 09:02:31;;;;;;;23.73;11.48;;;20.60;99.90;;;;;;5096911;28;20150;-74
2021/07/27 09:05:23;;;;;;;26.00;12.60;;;20.80;99.90;;;;;;5077439;28;20031;-76
2021/07/27 09:07:48;;;;;;;22.33;11.63;;;20.90;99.90;;;;;;5073001;28;20524;-76
2021/07/27 09:10:19;;;;;;;25.95;12.30;;;20.90;99.90;;;;;;5075886;28;20020;-75
2021/07/27 09:12:59;;;;;;;25.40;12.52;;;20.80;99.90;;;;;;5057742;28;20038;-75
2021/07/27 09:15:30;;;;;;;21.95;11.52;;;20.70;99.90;;;;;;5057826;28;20016;-74
2021/07/27 09:18:04;;;;;;;21.88;10.50;;;20.80;99.90;;;;;;5065538;28;20053;-75
2021/07/27 09:20:58;;;;;;;21.17;11.55;;;20.70;99.90;;;;;;5095826;28;20027;-75
2021/07/27 09:23:27;;;;;;;25.48;11.35;;;20.70;99.90;;;;;;5081795;28;20028;-74
2021/07/27 09:25:56;;;;;;;18.35;10.32;;;20.70;99.90;;;;;;5077862;28;20027;-74
2021/07/27 09:28:22;;;;;;;19.95;10.35;;;20.70;99.90;;;;;;5095772;28;20491;-76
2021/07/27 09:30:49;;;;;;;18.05;10.02;;;20.80;99.90;;;;;;5096247;28;20021;-76
2021/07/27 09:33:17;;;;;;;19.95;10.48;;;20.70;99.90;;;;;;5095225;28;20024;-76
2021/07/27 09:35:44;;;;;;;16.83;10.23;;;20.60;99.90;;;;;;5077903;28;20093;-75
2021/07/27 09:38:17;;;;;;;21.02;10.82;;;20.50;99.90;;;;;;5078457;28;20060;-74
2021/07/27 09:40:51;;;;;;;19.67;11.45;;;20.40;99.90;;;;;;5095883;28;20031;-74
2021/07/27 09:43:19;;;;;;;19.48;10.52;;;20.40;99.90;;;;;;5076452;28;20020;-75
2021/07/27 09:45:47;;;;;;;18.42;9.63;;;20.30;99.90;;;;;;5095271;28;20427;-75
2021/07/27 09:48:17;;;;;;;21.02;10.25;;;20.20;99.90;;;;;;5075404;28;20410;-73
2021/07/27 09:50:47;;;;;;;18.08;10.05;;;20.10;99.90;;;;;;5074983;28;20024;-75
2021/07/27 09:53:14;;;;;;;18.75;10.70;;;20.20;99.90;;;;;;5074793;28;20016;-75
2021/07/27 09:55:40;;;;;;;18.42;9.38;;;20.10;99.90;;;;;;5074951;28;20078;-75
2021/07/27 09:58:06;;;;;;;18.38;10.43;;;20.10;99.90;;;;;;5091860;28;20016;-73
2021/07/27 10:00:36;;;;;;;18.10;9.90;;;20.00;99.90;;;;;;5094881;28;20024;-73
2021/07/27 10:03:04;;;;;;;20.85;10.63;;;20.00;99.90;;;;;;5076716;28;20060;-74
2021/07/27 10:05:30;;;;;;;20.97;11.13;;;20.00;99.90;;;;;;5091838;28;20389;-75
2021/07/27 10:07:57;;;;;;;19.30;11.10;;;20.00;99.90;;;;;;5074588;28;20021;-75
2021/07/27 10:10:37;;;;;;;23.50;11.52;;;19.90;99.90;;;;;;5074524;28;20478;-75
2021/07/27 10:13:11;;;;;;;19.13;10.38;;;20.00;99.90;;;;;;5091740;28;20020;-75
2021/07/27 10:15:41;;;;;;;17.80;10.50;;;19.90;99.90;;;;;;5092034;28;20474;-74
2021/07/27 10:18:07;;;;;;;20.67;10.65;;;19.90;99.90;;;;;;5074494;28;20035;-74
2021/07/27 10:20:33;;;;;;;21.98;10.27;;;20.00;99.90;;;;;;5074317;28;20135;-74
2021/07/27 10:22:59;;;;;;;18.02;10.90;;;20.00;99.90;;;;;;5074060;28;20040;-75
2021/07/27 10:25:25;;;;;;;21.55;10.63;;;19.90;99.90;;;;;;5056572;28;20020;-75
2021/07/27 10:27:55;;;;;;;17.65;9.77;;;19.90;99.90;;;;;;5094223;28;20069;-75
2021/07/27 10:30:31;;;;;;;20.50;10.65;;;19.80;99.90;;;;;;5075930;28;20107;-75
2021/07/27 10:32:57;;;;;;;15.85;8.70;;;19.80;99.90;;;;;;5094338;28;20016;-74
2021/07/27 10:35:28;;;;;;;11.07;7.10;;;19.70;99.90;;;;;;5093515;28;20052;-74
2021/07/27 10:38:05;;;;;;;15.75;7.35;;;19.70;99.90;;;;;;5074046;28;20111;-74
2021/07/27 10:40:32;;;;;;;12.93;7.10;;;19.50;99.90;;;;;;5074484;28;20032;-74
2021/07/27 10:42:58;;;;;;;14.95;7.72;;;19.30;99.90;;;;;;5073950;28;20104;-74
2021/07/27 10:45:25;;;;;;;13.13;6.85;;;19.30;99.90;;;;;;5056542;28;20485;-76
2021/07/27 10:47:52;;;;;;;19.65;7.38;;;19.10;99.90;;;;;;5075948;28;20024;-73
2021/07/27 10:50:27;;;;;;;10.25;5.38;;;19.10;99.90;;;;;;5094028;28;20074;-74
2021/07/27 10:53:12;;;;;;;12.25;6.28;;;18.90;99.90;;;;;;5094533;28;20023;-75
2021/07/27 10:55:42;;;;;;;14.48;5.85;;;18.90;99.90;;;;;;5092196;28;20055;-73
2021/07/27 10:58:16;;;;;;;12.18;6.00;;;19.10;99.90;;;;;;5093996;28;20385;-74
2021/07/27 11:00:41;;;;;;;10.38;5.68;;;19.30;99.90;;;;;;5094087;28;20084;-74
2021/07/27 11:03:07;;;;;;;10.85;5.78;;;19.50;99.90;;;;;;5075691;28;20123;-73
2021/07/27 11:05:34;;;;;;;10.45;5.50;;;19.50;99.90;;;;;;5073986;28;20392;-73
2021/07/27 11:08:00;;;;;;;11.98;5.50;;;19.60;99.90;;;;;;5075638;28;20100;-75
2021/07/27 11:10:26;;;;;;;8.90;5.28;;;19.70;99.90;;;;;;5093649;28;20477;-74
2021/07/27 11:12:53;;;;;;;10.98;5.45;;;19.70;99.90;;;;;;5090870;28;20028;-75
2021/07/27 11:15:23;;;;;;;8.82;4.07;;;19.80;99.90;;;;;;5061020;28;20024;-75
2021/07/27 11:17:58;;;;;;;9.02;4.57;;;19.80;99.90;;;;;;5093588;28;20028;-74
2021/07/27 11:20:35;;;;;;;8.00;3.92;;;19.80;99.90;;;;;;5093789;28;20031;-73
2021/07/27 11:23:07;;;;;;;6.50;3.63;;;19.80;99.90;;;;;;5093692;28;20043;-77
2021/07/27 11:25:33;;;;;;;8.40;3.92;;;19.70;99.90;;;;;;5074655;28;20024;-74
2021/07/27 11:28:12;;;;;;;9.70;3.45;;;19.60;99.90;;;;;;5093148;28;20104;-74
2021/07/27 11:30:39;;;;;;;6.75;3.42;;;19.50;99.90;;;;;;5093517;28;20095;-75
2021/07/27 11:33:11;;;;;;;7.88;3.13;;;19.40;99.90;;;;;;5093865;28;20043;-74
2021/07/27 11:35:45;;;;;;;7.25;3.35;;;19.40;99.90;;;;;;5068139;28;20024;-75
2021/07/27 11:38:18;;;;;;;7.43;3.25;;;19.30;99.90;;;;;;5055238;28;20024;-73
2021/07/27 11:40:43;;;;;;;8.73;3.80;;;19.30;99.90;;;;;;5073098;28;20021;-74
2021/07/27 11:43:10;;;;;;;7.10;3.63;;;19.30;99.90;;;;;;5055094;28;20124;-74
2021/07/27 11:45:38;;;;;;;7.82;3.63;;;19.40;99.90;;;;;;5073496;28;20074;-74
2021/07/27 11:48:05;;;;;;;4.38;2.50;;;19.40;99.90;;;;;;5073080;28;20100;-74
2021/07/27 11:50:36;;;;;;;10.10;3.35;;;19.50;99.90;;;;;;5055112;28;20386;-74
2021/07/27 11:53:05;;;;;;;7.60;2.80;;;19.60;99.90;;;;;;5073109;28;20079;-75
2021/07/27 11:55:39;;;;;;;4.53;2.17;;;19.80;99.90;;;;;;5073498;28;20023;-75
2021/07/27 11:58:06;;;;;;;4.38;1.40;;;20.00;99.90;;;;;;5054957;28;20078;-75
2021/07/27 12:00:34;;;;;;;2.78;1.30;;;20.20;99.90;;;;;;5073231;28;20100;-74
2021/07/27 12:03:00;;;;;;;5.43;1.95;;;20.50;99.90;;;;;;5055046;28;20049;-74
2021/07/27 12:05:27;;;;;;;4.40;1.70;;;21.00;99.90;;;;;;5076338;28;20090;-75
2021/07/27 12:07:52;;;;;;;4.75;1.00;;;21.50;99.90;;;;;;5096544;28;20074;-75
2021/07/27 12:10:18;;;;;;;2.70;1.00;;;21.90;99.90;;;;;;5097207;28;20024;-75
2021/07/27 12:12:44;;;;;;;1.75;0.57;;;22.20;99.90;;;;;;5097234;28;20032;-74
2021/07/27 12:15:15;;;;;;;1.77;0.70;;;22.50;99.90;;;;;;5097058;28;20520;-75
2021/07/27 12:17:42;;;;;;;3.50;1.00;;;22.50;99.90;;;;;;5078934;28;20016;-74
2021/07/27 12:20:10;;;;;;;1.13;0.57;;;22.70;99.90;;;;;;5076892;28;20012;-74
2021/07/27 12:22:36;;;;;;;3.83;0.60;;;22.70;99.90;;;;;;5076841;28;20017;-74
2021/07/27 12:25:02;;;;;;;2.63;0.40;;;22.70;99.90;;;;;;5076558;28;20028;-75
2021/07/27 12:27:31;;;;;;;1.85;0.60;;;22.50;99.90;;;;;;5058702;28;20036;-74
2021/07/27 12:29:57;;;;;;;2.60;0.50;;;22.50;99.90;;;;;;5081438;28;20036;-76
2021/07/27 12:32:22;;;;;;;1.17;0.38;;;22.60;99.90;;;;;;5080656;28;20024;-76
2021/07/27 12:34:50;;;;;;;3.20;0.55;;;22.70;99.90;;;;;;5081565;28;20036;-75
2021/07/27 12:37:16;;;;;;;5.60;0.80;;;22.90;99.90;;;;;;5081413;28;20024;-75
2021/07/27 12:39:41;;;;;;;3.08;1.05;;;22.90;99.90;;;;;;5081406;28;20080;-76
2021/07/27 12:42:07;;;;;;;3.30;1.20;;;23.20;99.90;;;;;;5081065;28;20051;-76
2021/07/27 12:44:36;;;;;;;2.35;0.77;;;23.40;99.90;;;;;;5062565;28;20021;-76
2021/07/27 12:47:02;;;;;;;2.83;0.80;;;23.70;99.90;;;;;;5062907;28;20159;-76
2021/07/27 12:49:30;;;;;;;1.92;0.80;;;24.20;99.90;;;;;;5062796;28;20490;-76
2021/07/27 12:51:55;;;;;;;1.83;0.80;;;24.40;99.90;;;;;;5062843;28;20024;-76
2021/07/27 12:54:21;;;;;;;5.97;1.33;;;26.40;99.90;;;;;;5063271;28;20039;-76
2021/07/27 12:56:46;;;;;;;3.72;0.82;;;24.80;99.90;;;;;;5082379;28;20027;-75
2021/07/27 12:59:12;;;;;;;1.85;0.98;;;24.90;99.90;;;;;;5063273;28;20086;-76